createdAt,value
2017-09-17T00:00:40.924Z,811.91
2017-09-17T00:01:41.531Z,811.90
2017-09-17T00:02:42.141Z,811.92
2017-09-17T00:03:42.849Z,811.88
2017-09-17T00:04:43.458Z,811.90
2017-09-17T00:05:44.068Z,811.85
2017-09-17T00:06:44.678Z,811.87
2017-09-17T00:07:45.288Z,811.87
2017-09-17T00:08:45.997Z,811.83
2017-09-17T00:09:46.606Z,811.83
2017-09-17T00:10:47.216Z,811.83
2017-09-17T00:11:47.826Z,811.84
2017-09-17T00:12:48.434Z,811.82
2017-09-17T00:13:49.144Z,811.81
2017-09-17T00:14:49.758Z,811.81
2017-09-17T00:15:50.365Z,811.80
2017-09-17T00:16:50.978Z,811.80
2017-09-17T00:17:51.617Z,811.78
2017-09-17T00:18:52.333Z,811.81
2017-09-17T00:19:52.938Z,811.82
2017-09-17T00:20:53.552Z,811.78
2017-09-17T00:21:54.161Z,811.76
2017-09-17T00:22:54.772Z,811.84
2017-09-17T00:23:55.480Z,811.78
2017-09-17T00:24:56.089Z,811.81
2017-09-17T00:25:56.702Z,811.81
2017-09-17T00:26:57.310Z,811.79
2017-09-17T00:27:57.925Z,811.78
2017-09-17T00:28:58.631Z,811.76
2017-09-17T00:29:59.246Z,811.75
2017-09-17T00:30:59.852Z,811.77
2017-09-17T00:32:00.463Z,811.70
2017-09-17T00:33:01.072Z,811.73
2017-09-17T00:34:01.782Z,811.72
2017-09-17T00:35:02.389Z,811.69
2017-09-17T00:36:02.999Z,811.70
2017-09-17T00:37:03.611Z,811.71
2017-09-17T00:38:04.255Z,811.71
2017-09-17T00:39:04.963Z,811.71
2017-09-17T00:40:05.571Z,811.72
2017-09-17T00:41:06.179Z,811.73
2017-09-17T00:42:06.787Z,811.73
2017-09-17T00:43:07.403Z,811.74
2017-09-17T00:44:08.105Z,811.70
2017-09-17T00:45:08.719Z,811.71
2017-09-17T00:46:09.366Z,811.69
2017-09-17T00:47:09.971Z,811.70
2017-09-17T00:48:10.590Z,811.69
2017-09-17T00:49:11.327Z,811.71
2017-09-17T00:50:11.936Z,811.69
2017-09-17T00:51:12.544Z,811.71
2017-09-17T00:52:13.160Z,811.70
2017-09-17T00:53:13.764Z,811.75
2017-09-17T00:54:14.473Z,811.76
2017-09-17T00:55:15.121Z,811.72
2017-09-17T00:56:15.734Z,811.75
2017-09-17T00:57:16.339Z,811.74
2017-09-17T00:58:16.959Z,811.74
2017-09-17T00:59:17.695Z,811.72
2017-09-17T01:00:18.308Z,811.72
2017-09-17T01:01:18.927Z,811.72
2017-09-17T01:02:19.556Z,811.70
2017-09-17T01:03:20.165Z,811.72
2017-09-17T01:04:20.876Z,811.70
2017-09-17T01:05:21.483Z,811.69
2017-09-17T01:06:22.092Z,811.72
2017-09-17T01:07:22.700Z,811.71
2017-09-17T01:08:23.308Z,811.73
2017-09-17T01:09:24.024Z,811.76
2017-09-17T01:10:24.635Z,811.78
2017-09-17T01:11:25.246Z,811.71
2017-09-17T01:12:25.849Z,811.72
2017-09-17T01:13:26.464Z,811.72
2017-09-17T01:14:27.181Z,811.70
2017-09-17T01:15:27.787Z,811.69
2017-09-17T01:16:28.393Z,811.68
2017-09-17T01:17:29.002Z,811.66
2017-09-17T01:18:29.614Z,811.71
2017-09-17T01:19:30.322Z,811.69
2017-09-17T01:20:30.930Z,811.67
2017-09-17T01:21:31.536Z,811.68
2017-09-17T01:22:32.152Z,811.72
2017-09-17T01:23:32.759Z,811.71
2017-09-17T01:24:33.467Z,811.72
2017-09-17T01:25:34.074Z,811.67
2017-09-17T01:26:34.683Z,811.71
2017-09-17T01:27:35.291Z,811.71
2017-09-17T01:28:35.906Z,811.73
2017-09-17T01:29:36.612Z,811.70
2017-09-17T01:30:37.221Z,811.76
2017-09-17T01:31:37.828Z,811.75
2017-09-17T01:32:38.440Z,811.72
2017-09-17T01:33:39.048Z,811.75
2017-09-17T01:34:39.757Z,811.77
2017-09-17T01:35:40.396Z,811.78
2017-09-17T01:36:41.019Z,811.79
2017-09-17T01:37:41.615Z,811.77
2017-09-17T01:38:42.222Z,811.77
2017-09-17T01:39:42.931Z,811.73
2017-09-17T01:40:43.538Z,811.73
2017-09-17T01:41:44.152Z,811.71
2017-09-17T01:42:44.763Z,811.72
2017-09-17T01:43:45.370Z,811.73
2017-09-17T01:44:46.110Z,811.70
2017-09-17T01:45:46.751Z,811.69
2017-09-17T01:46:47.369Z,811.69
2017-09-17T01:47:47.975Z,811.71
2017-09-17T01:48:48.617Z,811.70
2017-09-17T01:49:49.333Z,811.71
2017-09-17T01:50:49.934Z,811.68
2017-09-17T01:51:50.541Z,811.72
2017-09-17T01:52:51.149Z,811.66
2017-09-17T01:53:51.758Z,811.70
2017-09-17T01:54:52.499Z,811.72
2017-09-17T01:55:53.108Z,811.72
2017-09-17T01:56:53.719Z,811.69
2017-09-17T01:57:54.335Z,811.71
2017-09-17T01:58:54.933Z,811.68
2017-09-17T01:59:58.674Z,811.70
2017-09-17T02:00:59.289Z,811.66
2017-09-17T02:01:59.930Z,811.67
2017-09-17T02:03:00.538Z,811.67
2017-09-17T02:04:01.147Z,811.66
2017-09-17T02:05:01.860Z,811.69
2017-09-17T02:06:02.471Z,811.67
2017-09-17T02:07:03.081Z,811.63
2017-09-17T02:08:03.686Z,811.67
2017-09-17T02:09:04.296Z,811.64
2017-09-17T02:10:05.003Z,811.67
2017-09-17T02:11:05.613Z,811.65
2017-09-17T02:12:06.219Z,811.66
2017-09-17T02:13:06.828Z,811.65
2017-09-17T02:14:07.448Z,811.64
2017-09-17T02:15:08.146Z,811.66
2017-09-17T02:16:08.756Z,811.66
2017-09-17T02:17:09.363Z,811.66
2017-09-17T02:18:09.970Z,811.63
2017-09-17T02:19:10.584Z,811.62
2017-09-17T02:20:11.289Z,811.63
2017-09-17T02:21:11.899Z,811.64
2017-09-17T02:22:12.506Z,811.62
2017-09-17T02:23:13.114Z,811.61
2017-09-17T02:24:13.721Z,811.63
2017-09-17T02:25:14.429Z,811.62
2017-09-17T02:26:15.041Z,811.59
2017-09-17T02:27:15.647Z,811.58
2017-09-17T02:28:16.255Z,811.54
2017-09-17T02:29:16.863Z,811.56
2017-09-17T02:30:17.572Z,811.59
2017-09-17T02:31:18.211Z,811.57
2017-09-17T02:32:18.819Z,811.59
2017-09-17T02:33:19.467Z,811.59
2017-09-17T02:34:20.070Z,811.63
2017-09-17T02:35:20.776Z,811.63
2017-09-17T02:36:21.385Z,811.58
2017-09-17T02:37:21.998Z,811.60
2017-09-17T02:38:22.642Z,811.63
2017-09-17T02:39:23.248Z,811.63
2017-09-17T02:40:23.956Z,811.63
2017-09-17T02:41:24.566Z,811.68
2017-09-17T02:42:25.207Z,811.66
2017-09-17T02:43:25.816Z,811.63
2017-09-17T02:44:26.457Z,811.65
2017-09-17T02:45:27.166Z,811.61
2017-09-17T02:46:27.776Z,811.62
2017-09-17T02:47:28.383Z,811.63
2017-09-17T02:48:28.989Z,811.61
2017-09-17T02:49:29.598Z,811.62
2017-09-17T02:50:30.314Z,811.60
2017-09-17T02:51:30.922Z,811.61
2017-09-17T02:52:31.531Z,811.58
2017-09-17T02:53:32.137Z,811.65
2017-09-17T02:54:32.748Z,811.62
2017-09-17T02:55:33.454Z,811.62
2017-09-17T02:56:34.067Z,811.59
2017-09-17T02:57:34.670Z,811.60
2017-09-17T02:58:35.280Z,811.54
2017-09-17T02:59:35.894Z,811.57
2017-09-17T03:00:36.597Z,811.58
2017-09-17T03:01:37.211Z,811.56
2017-09-17T03:02:37.849Z,811.56
2017-09-17T03:03:38.494Z,811.59
2017-09-17T03:04:39.100Z,811.56
2017-09-17T03:05:39.809Z,811.58
2017-09-17T03:06:40.416Z,811.57
2017-09-17T03:07:41.024Z,811.57
2017-09-17T03:08:41.631Z,811.61
2017-09-17T03:09:42.245Z,811.60
2017-09-17T03:10:42.956Z,811.62
2017-09-17T03:11:43.560Z,811.65
2017-09-17T03:12:44.174Z,811.58
2017-09-17T03:13:44.780Z,811.61
2017-09-17T03:14:45.385Z,811.57
2017-09-17T03:15:46.092Z,811.60
2017-09-17T03:16:46.707Z,811.56
2017-09-17T03:17:47.313Z,811.59
2017-09-17T03:18:47.921Z,811.59
2017-09-17T03:19:48.561Z,811.58
2017-09-17T03:20:49.268Z,811.57
2017-09-17T03:21:49.876Z,811.56
2017-09-17T03:22:50.515Z,811.56
2017-09-17T03:23:51.122Z,811.59
2017-09-17T03:24:51.729Z,811.58
2017-09-17T03:25:52.437Z,811.59
2017-09-17T03:26:53.056Z,811.60
2017-09-17T03:27:53.653Z,811.58
2017-09-17T03:28:54.259Z,811.60
2017-09-17T03:29:54.867Z,811.59
2017-09-17T03:30:55.579Z,811.61
2017-09-17T03:31:56.220Z,811.66
2017-09-17T03:32:56.866Z,811.63
2017-09-17T03:33:57.469Z,811.60
2017-09-17T03:34:58.110Z,811.62
2017-09-17T03:35:58.851Z,811.63
2017-09-17T03:36:59.460Z,811.61
2017-09-17T03:38:00.068Z,811.61
2017-09-17T03:39:00.676Z,811.61
2017-09-17T03:40:01.284Z,811.62
2017-09-17T03:41:01.991Z,811.55
2017-09-17T03:42:02.599Z,811.56
2017-09-17T03:43:03.208Z,811.60
2017-09-17T03:44:03.816Z,811.57
2017-09-17T03:45:04.422Z,811.58
2017-09-17T03:46:05.129Z,811.54
2017-09-17T03:47:05.739Z,811.55
2017-09-17T03:48:06.345Z,811.53
2017-09-17T03:49:06.954Z,811.55
2017-09-17T03:50:07.560Z,811.52
2017-09-17T03:51:08.273Z,811.51
2017-09-17T03:52:08.920Z,811.52
2017-09-17T03:53:09.566Z,811.55
2017-09-17T03:54:10.177Z,811.49
2017-09-17T03:55:10.781Z,811.52
2017-09-17T03:56:11.494Z,811.48
2017-09-17T03:57:12.106Z,811.49
2017-09-17T03:58:12.711Z,811.46
2017-09-17T03:59:13.318Z,811.47
2017-09-17T04:00:13.935Z,811.43
2017-09-17T04:01:14.676Z,811.46
2017-09-17T04:02:15.288Z,811.51
2017-09-17T04:03:15.898Z,811.46
2017-09-17T04:04:16.540Z,811.53
2017-09-17T04:05:17.151Z,811.53
2017-09-17T04:06:17.888Z,811.52
2017-09-17T04:07:18.496Z,811.50
2017-09-17T04:08:19.103Z,811.52
2017-09-17T04:09:19.709Z,811.50
2017-09-17T04:10:20.323Z,811.49
2017-09-17T04:11:21.037Z,811.48
2017-09-17T04:12:21.645Z,811.52
2017-09-17T04:13:22.251Z,811.54
2017-09-17T04:14:22.863Z,811.52
2017-09-17T04:15:23.493Z,811.53
2017-09-17T04:16:24.233Z,811.57
2017-09-17T04:17:24.874Z,811.56
2017-09-17T04:18:25.478Z,811.57
2017-09-17T04:19:26.090Z,811.58
2017-09-17T04:20:26.712Z,811.57
2017-09-17T04:21:27.409Z,811.60
2017-09-17T04:22:28.011Z,811.58
2017-09-17T04:23:28.625Z,811.58
2017-09-17T04:24:29.230Z,811.55
2017-09-17T04:25:29.845Z,811.58
2017-09-17T04:26:30.551Z,811.56
2017-09-17T04:27:31.157Z,811.56
2017-09-17T04:28:31.764Z,811.59
2017-09-17T04:29:32.371Z,811.60
2017-09-17T04:30:32.986Z,811.59
2017-09-17T04:31:33.698Z,811.58
2017-09-17T04:32:34.303Z,811.58
2017-09-17T04:33:34.909Z,811.60
2017-09-17T04:34:35.516Z,811.60
2017-09-17T04:35:36.124Z,811.62
2017-09-17T04:36:36.864Z,811.63
2017-09-17T04:37:37.504Z,811.61
2017-09-17T04:38:38.114Z,811.59
2017-09-17T04:39:38.721Z,811.61
2017-09-17T04:40:39.328Z,811.65
2017-09-17T04:41:40.038Z,811.61
2017-09-17T04:42:40.646Z,811.65
2017-09-17T04:43:41.256Z,811.63
2017-09-17T04:44:41.862Z,811.68
2017-09-17T04:45:42.471Z,811.66
2017-09-17T04:46:43.178Z,811.66
2017-09-17T04:47:43.793Z,811.68
2017-09-17T04:48:44.396Z,811.66
2017-09-17T04:49:45.011Z,811.69
2017-09-17T04:50:45.614Z,811.70
2017-09-17T04:51:46.322Z,811.68
2017-09-17T04:52:46.936Z,811.67
2017-09-17T04:53:47.538Z,811.72
2017-09-17T04:54:48.147Z,811.71
2017-09-17T04:55:48.753Z,811.71
2017-09-17T04:56:49.460Z,811.70
2017-09-17T04:57:50.067Z,811.70
2017-09-17T04:58:50.682Z,811.75
2017-09-17T04:59:51.288Z,811.76
2017-09-17T05:00:51.900Z,811.77
2017-09-17T05:01:52.635Z,811.80
2017-09-17T05:02:53.250Z,811.79
2017-09-17T05:03:53.889Z,811.75
2017-09-17T05:04:54.496Z,811.77
2017-09-17T05:05:55.104Z,811.80
2017-09-17T05:06:55.820Z,811.79
2017-09-17T05:07:56.420Z,811.81
2017-09-17T05:08:57.059Z,811.81
2017-09-17T05:09:57.666Z,811.80
2017-09-17T05:10:58.272Z,811.82
2017-09-17T05:11:59.013Z,811.81
2017-09-17T05:12:59.626Z,811.80
2017-09-17T05:14:00.269Z,811.80
2017-09-17T05:15:00.873Z,811.78
2017-09-17T05:16:01.481Z,811.78
2017-09-17T05:17:02.191Z,811.77
2017-09-17T05:18:02.802Z,811.80
2017-09-17T05:19:03.406Z,811.76
2017-09-17T05:20:04.013Z,811.78
2017-09-17T05:21:04.620Z,811.79
2017-09-17T05:22:05.328Z,811.78
2017-09-17T05:23:05.941Z,811.80
2017-09-17T05:24:06.547Z,811.80
2017-09-17T05:25:07.185Z,811.83
2017-09-17T05:26:07.794Z,811.80
2017-09-17T05:27:08.507Z,811.81
2017-09-17T05:28:09.149Z,811.82
2017-09-17T05:29:09.759Z,811.84
2017-09-17T05:30:10.367Z,811.83
2017-09-17T05:31:10.976Z,811.87
2017-09-17T05:32:11.690Z,811.85
2017-09-17T05:33:12.299Z,811.86
2017-09-17T05:34:12.907Z,811.90
2017-09-17T05:35:13.548Z,811.94
2017-09-17T05:36:14.157Z,811.90
2017-09-17T05:37:14.865Z,811.92
2017-09-17T05:38:15.478Z,811.92
2017-09-17T05:39:16.086Z,811.95
2017-09-17T05:40:16.696Z,811.97
2017-09-17T05:41:17.305Z,811.95
2017-09-17T05:42:18.014Z,811.93
2017-09-17T05:43:18.627Z,811.93
2017-09-17T05:44:19.233Z,811.97
2017-09-17T05:45:19.843Z,811.96
2017-09-17T05:46:20.456Z,811.94
2017-09-17T05:47:21.167Z,812.01
2017-09-17T05:48:21.774Z,811.99
2017-09-17T05:49:22.384Z,812.04
2017-09-17T05:50:22.992Z,812.03
2017-09-17T05:51:23.602Z,812.04
2017-09-17T05:52:24.310Z,812.01
2017-09-17T05:53:24.920Z,812.06
2017-09-17T05:54:25.529Z,812.03
2017-09-17T05:55:26.137Z,812.08
2017-09-17T05:56:26.749Z,812.06
2017-09-17T05:57:27.456Z,812.06
2017-09-17T05:58:28.099Z,812.04
2017-09-17T05:59:28.715Z,812.08
2017-09-17T06:00:29.325Z,812.05
2017-09-17T06:01:29.933Z,812.02
2017-09-17T06:02:30.642Z,812.02
2017-09-17T06:03:31.257Z,811.99
2017-09-17T06:04:31.864Z,812.02
2017-09-17T06:05:32.471Z,812.02
2017-09-17T06:06:33.093Z,812.07
2017-09-17T06:07:33.792Z,812.09
2017-09-17T06:08:34.403Z,812.10
2017-09-17T06:09:35.013Z,812.12
2017-09-17T06:10:35.623Z,812.13
2017-09-17T06:11:36.231Z,812.11
2017-09-17T06:12:36.947Z,812.13
2017-09-17T06:13:37.548Z,812.15
2017-09-17T06:14:38.163Z,812.13
2017-09-17T06:15:38.777Z,812.17
2017-09-17T06:16:39.382Z,812.15
2017-09-17T06:17:40.101Z,812.16
2017-09-17T06:18:40.714Z,812.19
2017-09-17T06:19:41.346Z,812.20
2017-09-17T06:20:41.956Z,812.25
2017-09-17T06:21:42.571Z,812.23
2017-09-17T06:22:43.278Z,812.20
2017-09-17T06:23:43.892Z,812.24
2017-09-17T06:24:44.504Z,812.22
2017-09-17T06:25:45.110Z,812.25
2017-09-17T06:26:45.718Z,812.23
2017-09-17T06:27:46.426Z,812.27
2017-09-17T06:28:47.041Z,812.27
2017-09-17T06:29:47.654Z,812.29
2017-09-17T06:30:48.259Z,812.30
2017-09-17T06:31:48.873Z,812.30
2017-09-17T06:32:49.588Z,812.29
2017-09-17T06:33:50.193Z,812.29
2017-09-17T06:34:50.802Z,812.28
2017-09-17T06:35:51.410Z,812.29
2017-09-17T06:36:52.019Z,812.28
2017-09-17T06:37:52.735Z,812.32
2017-09-17T06:38:53.341Z,812.33
2017-09-17T06:39:53.955Z,812.34
2017-09-17T06:40:54.569Z,812.34
2017-09-17T06:41:55.173Z,812.33
2017-09-17T06:42:55.885Z,812.31
2017-09-17T06:43:56.496Z,812.33
2017-09-17T06:44:57.107Z,812.35
2017-09-17T06:45:57.714Z,812.31
2017-09-17T06:46:58.323Z,812.34
2017-09-17T06:47:59.032Z,812.35
2017-09-17T06:48:59.644Z,812.37
2017-09-17T06:50:00.283Z,812.36
2017-09-17T06:51:00.893Z,812.38
2017-09-17T06:52:01.503Z,812.39
2017-09-17T06:53:02.217Z,812.38
2017-09-17T06:54:02.822Z,812.38
2017-09-17T06:55:03.429Z,812.41
2017-09-17T06:56:04.038Z,812.37
2017-09-17T06:57:04.656Z,812.37
2017-09-17T06:58:05.359Z,812.34
2017-09-17T06:59:05.974Z,812.36
2017-09-17T07:00:06.585Z,812.38
2017-09-17T07:01:07.221Z,812.35
2017-09-17T07:02:07.829Z,812.38
2017-09-17T07:03:08.540Z,812.42
2017-09-17T07:04:09.150Z,812.38
2017-09-17T07:05:09.758Z,812.40
2017-09-17T07:06:10.367Z,812.41
2017-09-17T07:07:10.977Z,812.42
2017-09-17T07:08:11.685Z,812.43
2017-09-17T07:09:12.327Z,812.42
2017-09-17T07:10:12.935Z,812.44
2017-09-17T07:11:13.544Z,812.43
2017-09-17T07:12:14.161Z,812.44
2017-09-17T07:13:14.872Z,812.40
2017-09-17T07:14:15.486Z,812.42
2017-09-17T07:15:16.094Z,812.41
2017-09-17T07:16:16.704Z,812.39
2017-09-17T07:17:17.321Z,812.42
2017-09-17T07:18:18.032Z,812.41
2017-09-17T07:19:18.643Z,812.44
2017-09-17T07:20:19.255Z,812.46
2017-09-17T07:21:19.869Z,812.44
2017-09-17T07:22:20.487Z,812.47
2017-09-17T07:23:21.193Z,812.46
2017-09-17T07:24:21.812Z,812.45
2017-09-17T07:25:22.421Z,812.47
2017-09-17T07:26:23.034Z,812.49
2017-09-17T07:27:23.645Z,812.49
2017-09-17T07:28:24.355Z,812.49
2017-09-17T07:29:24.970Z,812.48
2017-09-17T07:30:25.609Z,812.50
2017-09-17T07:31:26.220Z,812.50
2017-09-17T07:32:26.837Z,812.53
2017-09-17T07:33:27.549Z,812.56
2017-09-17T07:34:28.159Z,812.55
2017-09-17T07:35:28.802Z,812.56
2017-09-17T07:36:29.422Z,812.55
2017-09-17T07:37:30.027Z,812.57
2017-09-17T07:38:30.742Z,812.57
2017-09-17T07:39:31.354Z,812.52
2017-09-17T07:40:31.964Z,812.57
2017-09-17T07:41:32.579Z,812.57
2017-09-17T07:42:33.189Z,812.56
2017-09-17T07:43:33.905Z,812.57
2017-09-17T07:44:34.519Z,812.59
2017-09-17T07:45:35.131Z,812.60
2017-09-17T07:46:35.741Z,812.61
2017-09-17T07:47:36.359Z,812.60
2017-09-17T07:48:37.068Z,812.60
2017-09-17T07:49:37.687Z,812.61
2017-09-17T07:50:38.294Z,812.62
2017-09-17T07:51:38.911Z,812.63
2017-09-17T07:52:39.521Z,812.65
2017-09-17T07:53:40.233Z,812.63
2017-09-17T07:54:40.844Z,812.64
2017-09-17T07:55:41.460Z,812.63
2017-09-17T07:56:42.071Z,812.63
2017-09-17T07:57:42.682Z,812.63
2017-09-17T07:58:43.401Z,812.64
2017-09-17T07:59:44.011Z,812.64
2017-09-17T08:00:44.622Z,812.64
2017-09-17T08:01:45.266Z,812.66
2017-09-17T08:02:45.879Z,812.62
2017-09-17T08:03:46.590Z,812.65
2017-09-17T08:04:47.209Z,812.64
2017-09-17T08:05:47.818Z,812.68
2017-09-17T08:06:48.432Z,812.69
2017-09-17T08:07:49.048Z,812.69
2017-09-17T08:08:49.795Z,812.64
2017-09-17T08:09:50.438Z,812.67
2017-09-17T08:10:51.050Z,812.64
2017-09-17T08:11:51.661Z,812.65
2017-09-17T08:12:52.280Z,812.63
2017-09-17T08:13:52.995Z,812.66
2017-09-17T08:14:53.604Z,812.66
2017-09-17T08:15:54.221Z,812.66
2017-09-17T08:16:54.831Z,812.67
2017-09-17T08:17:55.450Z,812.68
2017-09-17T08:18:56.160Z,812.61
2017-09-17T08:19:56.804Z,812.69
2017-09-17T08:20:57.449Z,812.66
2017-09-17T08:21:58.065Z,812.63
2017-09-17T08:22:58.677Z,812.66
2017-09-17T08:23:59.388Z,812.64
2017-09-17T08:25:00.001Z,812.65
2017-09-17T08:26:00.614Z,812.65
2017-09-17T08:27:01.226Z,812.63
2017-09-17T08:28:01.838Z,812.63
2017-09-17T08:29:02.555Z,812.63
2017-09-17T08:30:03.166Z,812.65
2017-09-17T08:31:03.779Z,812.68
2017-09-17T08:32:04.400Z,812.65
2017-09-17T08:33:05.008Z,812.65
2017-09-17T08:34:05.728Z,812.69
2017-09-17T08:35:06.345Z,812.66
2017-09-17T08:36:06.958Z,812.70
2017-09-17T08:37:07.571Z,812.66
2017-09-17T08:38:08.222Z,812.63
2017-09-17T08:39:08.930Z,812.67
2017-09-17T08:40:09.544Z,812.64
2017-09-17T08:41:10.157Z,812.59
2017-09-17T08:42:10.773Z,812.62
2017-09-17T08:43:11.382Z,812.60
2017-09-17T08:44:12.099Z,812.61
2017-09-17T08:45:12.713Z,812.60
2017-09-17T08:46:13.357Z,812.61
2017-09-17T08:47:13.969Z,812.61
2017-09-17T08:48:14.586Z,812.61
2017-09-17T08:49:15.331Z,812.59
2017-09-17T08:50:15.948Z,812.60
2017-09-17T08:51:16.565Z,812.58
2017-09-17T08:52:17.206Z,812.57
2017-09-17T08:53:17.817Z,812.59
2017-09-17T08:54:18.532Z,812.62
2017-09-17T08:55:19.150Z,812.56
2017-09-17T08:56:19.759Z,812.59
2017-09-17T08:57:20.408Z,812.59
2017-09-17T08:58:21.019Z,812.56
2017-09-17T08:59:21.764Z,812.60
2017-09-17T09:00:22.377Z,812.58
2017-09-17T09:01:22.995Z,812.58
2017-09-17T09:02:23.638Z,812.59
2017-09-17T09:03:24.280Z,812.58
2017-09-17T09:04:25.023Z,812.55
2017-09-17T09:05:25.637Z,812.56
2017-09-17T09:06:26.249Z,812.56
2017-09-17T09:07:26.867Z,812.55
2017-09-17T09:08:27.475Z,812.55
2017-09-17T09:09:28.189Z,812.54
2017-09-17T09:10:28.805Z,812.51
2017-09-17T09:11:29.414Z,812.54
2017-09-17T09:12:30.024Z,812.49
2017-09-17T09:13:30.638Z,812.50
2017-09-17T09:14:31.357Z,812.47
2017-09-17T09:15:31.994Z,812.43
2017-09-17T09:16:32.607Z,812.43
2017-09-17T09:17:33.219Z,812.43
2017-09-17T09:18:33.831Z,812.40
2017-09-17T09:19:34.544Z,812.42
2017-09-17T09:20:35.155Z,812.42
2017-09-17T09:21:35.776Z,812.40
2017-09-17T09:22:36.388Z,812.45
2017-09-17T09:23:37.002Z,812.45
2017-09-17T09:24:37.714Z,812.43
2017-09-17T09:25:38.331Z,812.46
2017-09-17T09:26:38.942Z,812.47
2017-09-17T09:27:39.554Z,812.44
2017-09-17T09:28:40.172Z,812.38
2017-09-17T09:29:40.923Z,812.39
2017-09-17T09:30:41.533Z,812.36
2017-09-17T09:31:42.151Z,812.35
2017-09-17T09:32:42.763Z,812.43
2017-09-17T09:33:43.375Z,812.43
2017-09-17T09:34:44.089Z,812.39
2017-09-17T09:35:44.708Z,812.40
2017-09-17T09:36:45.319Z,812.38
2017-09-17T09:37:45.939Z,812.38
2017-09-17T09:38:46.549Z,812.38
2017-09-17T09:39:47.262Z,812.35
2017-09-17T09:40:47.876Z,812.35
2017-09-17T09:41:48.491Z,812.35
2017-09-17T09:42:49.107Z,812.34
2017-09-17T09:43:49.756Z,812.36
2017-09-17T09:44:50.463Z,812.30
2017-09-17T09:45:51.080Z,812.33
2017-09-17T09:46:51.693Z,812.27
2017-09-17T09:47:52.308Z,812.28
2017-09-17T09:48:52.924Z,812.30
2017-09-17T09:49:53.640Z,812.31
2017-09-17T09:50:54.251Z,812.29
2017-09-17T09:51:54.865Z,812.33
2017-09-17T09:52:55.477Z,812.31
2017-09-17T09:53:56.124Z,812.30
2017-09-17T09:54:56.836Z,812.26
2017-09-17T09:55:57.450Z,812.26
2017-09-17T09:56:58.070Z,812.24
2017-09-17T09:57:58.685Z,812.28
2017-09-17T09:58:59.298Z,812.25
2017-09-17T10:00:00.016Z,812.29
2017-09-17T10:01:00.627Z,812.31
2017-09-17T10:02:01.242Z,812.32
2017-09-17T10:03:01.855Z,812.34
2017-09-17T10:04:02.469Z,812.33
2017-09-17T10:05:03.182Z,812.34
2017-09-17T10:06:03.797Z,812.38
2017-09-17T10:07:04.416Z,812.37
2017-09-17T10:08:05.026Z,812.35
2017-09-17T10:09:05.641Z,812.37
2017-09-17T10:10:06.371Z,812.36
2017-09-17T10:11:06.981Z,812.35
2017-09-17T10:12:07.588Z,812.34
2017-09-17T10:13:08.197Z,812.35
2017-09-17T10:14:08.816Z,812.35
2017-09-17T10:15:09.532Z,812.33
2017-09-17T10:16:10.143Z,812.36
2017-09-17T10:17:10.762Z,812.35
2017-09-17T10:18:11.372Z,812.30
2017-09-17T10:19:11.992Z,812.34
2017-09-17T10:20:12.700Z,812.32
2017-09-17T10:21:13.317Z,812.32
2017-09-17T10:22:13.960Z,812.32
2017-09-17T10:23:14.578Z,812.32
2017-09-17T10:24:15.189Z,812.35
2017-09-17T10:25:15.903Z,812.31
2017-09-17T10:26:16.521Z,812.30
2017-09-17T10:27:17.139Z,812.35
2017-09-17T10:28:17.751Z,812.28
2017-09-17T10:29:18.372Z,812.26
2017-09-17T10:30:19.082Z,812.22
2017-09-17T10:31:19.697Z,812.20
2017-09-17T10:32:20.318Z,812.16
2017-09-17T10:33:20.929Z,812.20
2017-09-17T10:34:21.548Z,812.10
2017-09-17T10:35:22.259Z,812.23
2017-09-17T10:36:22.910Z,812.17
2017-09-17T10:37:23.525Z,812.20
2017-09-17T10:38:24.145Z,812.17
2017-09-17T10:39:24.756Z,812.15
2017-09-17T10:40:25.472Z,812.16
2017-09-17T10:41:26.087Z,812.19
2017-09-17T10:42:26.700Z,812.19
2017-09-17T10:43:27.320Z,812.14
2017-09-17T10:44:27.933Z,812.20
2017-09-17T10:45:28.645Z,812.19
2017-09-17T10:46:29.267Z,812.21
2017-09-17T10:47:29.884Z,812.30
2017-09-17T10:48:30.492Z,812.26
2017-09-17T10:49:31.138Z,812.26
2017-09-17T10:50:31.854Z,812.27
2017-09-17T10:51:32.470Z,812.20
2017-09-17T10:52:33.083Z,812.20
2017-09-17T10:53:33.698Z,812.25
2017-09-17T10:54:34.313Z,812.22
2017-09-17T10:55:35.031Z,812.24
2017-09-17T10:56:35.649Z,812.21
2017-09-17T10:57:36.265Z,812.27
2017-09-17T10:58:36.879Z,812.27
2017-09-17T10:59:37.520Z,812.27
2017-09-17T11:00:38.235Z,812.27
2017-09-17T11:01:38.848Z,812.23
2017-09-17T11:02:39.462Z,812.19
2017-09-17T11:03:40.076Z,812.12
2017-09-17T11:04:40.691Z,812.18
2017-09-17T11:05:41.447Z,812.17
2017-09-17T11:06:42.091Z,812.19
2017-09-17T11:07:42.706Z,812.18
2017-09-17T11:08:43.326Z,812.20
2017-09-17T11:09:43.937Z,812.20
2017-09-17T11:10:44.684Z,812.21
2017-09-17T11:11:45.331Z,812.18
2017-09-17T11:12:45.952Z,812.12
2017-09-17T11:13:46.563Z,812.15
2017-09-17T11:14:47.179Z,812.05
2017-09-17T11:15:47.891Z,812.08
2017-09-17T11:16:48.507Z,812.11
2017-09-17T11:17:49.123Z,812.11
2017-09-17T11:18:49.734Z,812.04
2017-09-17T11:19:50.352Z,812.02
2017-09-17T11:20:51.069Z,812.00
2017-09-17T11:21:51.684Z,812.03
2017-09-17T11:22:52.302Z,812.06
2017-09-17T11:23:52.918Z,812.05
2017-09-17T11:24:53.539Z,812.01
2017-09-17T11:25:54.254Z,812.09
2017-09-17T11:26:54.867Z,812.05
2017-09-17T11:27:55.483Z,812.06
2017-09-17T11:28:56.102Z,811.95
2017-09-17T11:29:56.715Z,812.04
2017-09-17T11:30:57.429Z,812.04
2017-09-17T11:31:58.045Z,812.06
2017-09-17T11:32:58.717Z,812.02
2017-09-17T11:33:59.312Z,812.01
2017-09-17T11:34:59.925Z,811.95
2017-09-17T11:36:00.639Z,812.03
2017-09-17T11:37:01.260Z,812.05
2017-09-17T11:38:01.879Z,812.07
2017-09-17T11:39:02.491Z,812.00
2017-09-17T11:40:03.106Z,812.07
2017-09-17T11:41:03.819Z,812.08
2017-09-17T11:42:04.435Z,812.06
2017-09-17T11:43:05.051Z,812.11
2017-09-17T11:44:05.666Z,812.08
2017-09-17T11:45:06.279Z,812.05
2017-09-17T11:46:07.007Z,812.09
2017-09-17T11:47:07.610Z,812.04
2017-09-17T11:48:08.226Z,812.02
2017-09-17T11:49:08.867Z,812.09
2017-09-17T11:50:09.481Z,812.01
2017-09-17T11:51:10.195Z,812.06
2017-09-17T11:52:10.811Z,812.04
2017-09-17T11:53:11.424Z,812.03
2017-09-17T11:54:12.038Z,812.08
2017-09-17T11:55:12.652Z,812.12
2017-09-17T11:56:13.372Z,812.12
2017-09-17T11:57:13.982Z,812.09
2017-09-17T11:58:14.596Z,812.04
2017-09-17T11:59:15.212Z,812.02
2017-09-17T12:00:15.831Z,812.04
2017-09-17T12:01:16.543Z,812.03
2017-09-17T12:02:17.158Z,811.94
2017-09-17T12:03:17.780Z,812.00
2017-09-17T12:04:18.398Z,811.99
2017-09-17T12:05:19.009Z,811.96
2017-09-17T12:06:19.723Z,811.95
2017-09-17T12:07:20.338Z,811.99
2017-09-17T12:08:20.952Z,811.99
2017-09-17T12:09:21.566Z,811.96
2017-09-17T12:10:22.186Z,811.94
2017-09-17T12:11:22.900Z,811.95
2017-09-17T12:12:23.515Z,812.00
2017-09-17T12:13:24.163Z,812.03
2017-09-17T12:14:24.775Z,812.05
2017-09-17T12:15:25.390Z,812.02
2017-09-17T12:16:26.105Z,812.05
2017-09-17T12:17:26.721Z,812.02
2017-09-17T12:18:27.343Z,811.98
2017-09-17T12:19:27.955Z,812.00
2017-09-17T12:20:28.578Z,811.99
2017-09-17T12:21:29.320Z,812.01
2017-09-17T12:22:29.931Z,811.98
2017-09-17T12:23:30.553Z,812.00
2017-09-17T12:24:31.164Z,811.96
2017-09-17T12:25:31.780Z,811.89
2017-09-17T12:26:32.507Z,811.91
2017-09-17T12:27:33.119Z,811.95
2017-09-17T12:28:33.729Z,811.92
2017-09-17T12:29:34.343Z,811.91
2017-09-17T12:30:34.960Z,811.87
2017-09-17T12:31:35.679Z,811.92
2017-09-17T12:32:36.293Z,811.94
2017-09-17T12:33:36.907Z,811.97
2017-09-17T12:34:37.524Z,811.95
2017-09-17T12:35:38.137Z,811.99
2017-09-17T12:36:38.852Z,811.93